SBGR/GRU METAR and TAF weather

Enter ICAO airport designator
Station Type Date Time Source
SBGR METAR 2020/03/31 05:00 UTC NOAA

SBGR 310500Z 10001KT CAVOK 18/18 Q1018


Station Type Date Time Source
SBGR Decoded METAR 2020/03/31 05:00 UTC NOAA

Guarulhos Civ / Mil , Brazil (SBGR) 23-26S 046-28W
Mar 31, 2020 - 01:00 AM EDT / 2020.03.31 0500 UTC
Wind: from the E (100 degrees) at 1 MPH (1 KT):0
Visibility: greater than 7 mile(s):0
Temperature: 64 F (18 C)
Dew Point: 64 F (18 C)
Relative Humidity: 100%
Pressure (altimeter): 30.06 in. Hg (1018 hPa)
ob: SBGR 310500Z 10001KT CAVOK 18/18 Q1018
cycle: 5

Station Type Date Time Source
SBGR TAF 2020/03/31 06:21 UTC NOAA

TAF SBGR 310208Z 3106/0112 08005KT 9999 SCT011 TN17/3109Z TX28/3118Z PROB30 3109/3111 BKN009
BECMG 3112/3114 SCT030
BECMG 3114/3116 15005KT
BECMG 3119/3121 SCT017
BECMG 3123/0101 12005KT BKN013
BECMG 0102/0104 08005KT BKN011 PROB30 0108/0111 BKN008
RMK PGF

Example: see airport list